TimeEST,TemperatureF,Dew PointF,Humidity,Sea Level PressureIn,VisibilityMPH,Wind Direction,Wind SpeedMPH,Gust SpeedMPH,PrecipitationIn,Events,Conditions,WindDirDegrees,DateUTC
12:15 AM,41.0,37.4,87,29.76,10.0,WSW,5.8,-,N/A,,Clear,250,2013-02-27 05:15:00
12:35 AM,41.0,37.4,87,29.77,10.0,WSW,5.8,-,N/A,,Clear,250,2013-02-27 05:35:00
12:55 AM,41.0,37.4,87,29.76,10.0,West,5.8,-,N/A,,Clear,260,2013-02-27 05:55:00
1:15 AM,41.0,37.4,87,29.78,10.0,WSW,5.8,-,N/A,,Clear,250,2013-02-27 06:15:00
1:35 AM,41.0,37.4,87,29.78,10.0,WSW,5.8,-,N/A,,Clear,240,2013-02-27 06:35:00
1:55 AM,37.4,35.6,93,29.78,10.0,WSW,5.8,-,N/A,,Scattered Clouds,240,2013-02-27 06:55:00
2:15 AM,39.2,35.6,87,29.79,10.0,WSW,5.8,-,N/A,,Mostly Cloudy,240,2013-02-27 07:15:00
2:35 AM,37.4,35.6,93,29.78,10.0,WSW,5.8,-,N/A,,Mostly Cloudy,240,2013-02-27 07:35:00
2:55 AM,37.4,35.6,93,29.78,10.0,WSW,5.8,-,N/A,,Scattered Clouds,250,2013-02-27 07:55:00
3:15 AM,37.4,35.6,93,29.78,10.0,WSW,4.6,-,N/A,,Mostly Cloudy,250,2013-02-27 08:15:00
3:35 AM,41.0,37.4,87,29.78,10.0,WSW,5.8,-,N/A,,Overcast,250,2013-02-27 08:35:00
3:55 AM,41.0,37.4,87,29.79,10.0,West,6.9,-,N/A,,Overcast,270,2013-02-27 08:55:00
4:15 AM,42.8,35.6,76,29.78,10.0,West,8.1,-,N/A,,Mostly Cloudy,280,2013-02-27 09:15:00
4:35 AM,42.8,33.8,70,29.79,10.0,West,10.4,17.3,N/A,,Clear,270,2013-02-27 09:35:00
4:55 AM,42.8,33.8,70,29.80,10.0,West,5.8,-,N/A,,Mostly Cloudy,260,2013-02-27 09:55:00
5:15 AM,42.8,35.6,76,29.80,10.0,West,6.9,-,N/A,,Overcast,270,2013-02-27 10:15:00
5:35 AM,42.8,33.8,70,29.80,10.0,West,8.1,-,N/A,,Overcast,270,2013-02-27 10:35:00
5:55 AM,42.8,33.8,70,29.81,10.0,West,10.4,18.4,N/A,,Overcast,280,2013-02-27 10:55:00
6:15 AM,42.8,32.0,66,29.82,10.0,West,10.4,17.3,N/A,,Overcast,280,2013-02-27 11:15:00
6:35 AM,42.8,32.0,66,29.82,10.0,West,12.7,20.7,N/A,,Overcast,280,2013-02-27 11:35:00
6:55 AM,42.8,32.0,66,29.84,10.0,West,11.5,18.4,N/A,,Overcast,280,2013-02-27 11:55:00
7:15 AM,42.8,30.2,61,29.84,10.0,WNW,12.7,24.2,N/A,,Overcast,290,2013-02-27 12:15:00
7:35 AM,42.8,32.0,66,29.84,10.0,West,9.2,-,N/A,,Overcast,280,2013-02-27 12:35:00
7:55 AM,42.8,32.0,66,29.85,10.0,West,10.4,-,N/A,,Mostly Cloudy,280,2013-02-27 12:55:00
8:15 AM,42.8,32.0,66,29.85,10.0,WNW,9.2,17.3,N/A,,Scattered Clouds,290,2013-02-27 13:15:00
8:35 AM,44.6,32.0,61,29.86,10.0,WNW,11.5,18.4,N/A,,Clear,290,2013-02-27 13:35:00
8:55 AM,44.6,32.0,61,29.86,10.0,West,9.2,16.1,N/A,,Clear,280,2013-02-27 13:55:00
9:15 AM,46.4,32.0,57,29.87,10.0,West,12.7,17.3,N/A,,Clear,270,2013-02-27 14:15:00
9:35 AM,46.4,32.0,57,29.88,10.0,West,11.5,-,N/A,,Clear,270,2013-02-27 14:35:00
10:15 AM,46.4,32.0,57,29.88,10.0,West,12.7,18.4,N/A,,Clear,280,2013-02-27 15:15:00
10:35 AM,50.0,32.0,50,29.88,10.0,West,11.5,16.1,N/A,,Scattered Clouds,260,2013-02-27 15:35:00
10:55 AM,51.8,32.0,47,29.88,10.0,WNW,15.0,19.6,N/A,,Scattered Clouds,290,2013-02-27 15:55:00
11:15 AM,51.8,32.0,47,29.89,10.0,West,13.8,19.6,N/A,,Scattered Clouds,270,2013-02-27 16:15:00
11:35 AM,53.6,33.8,47,29.88,10.0,WNW,10.4,16.1,N/A,,Clear,300,2013-02-27 16:35:00
11:55 AM,53.6,33.8,47,29.88,10.0,West,11.5,16.1,N/A,,Clear,270,2013-02-27 16:55:00
12:15 PM,53.6,33.8,47,29.88,10.0,WSW,8.1,17.3,N/A,,Clear,240,2013-02-27 17:15:00
6:35 PM,53.6,32.0,44,29.80,10.0,WSW,3.5,-,N/A,,Clear,240,2013-02-27 23:35:00
6:55 PM,53.6,35.6,51,29.81,10.0,WSW,3.5,-,N/A,,Clear,240,2013-02-27 23:55:00
7:15 PM,51.8,35.6,54,29.81,10.0,WSW,4.6,-,N/A,,Clear,240,2013-02-28 00:15:00
7:35 PM,51.8,33.8,50,29.81,10.0,SW,4.6,-,N/A,,Clear,230,2013-02-28 00:35:00
7:55 PM,50.0,33.8,54,29.81,10.0,SW,5.8,-,N/A,,Clear,230,2013-02-28 00:55:00
8:15 PM,50.0,33.8,54,29.81,10.0,WSW,5.8,-,N/A,,Clear,250,2013-02-28 01:15:00
8:35 PM,50.0,33.8,54,29.81,10.0,WSW,6.9,-,N/A,,Clear,250,2013-02-28 01:35:00
8:55 PM,48.2,33.8,58,29.82,10.0,WSW,6.9,-,N/A,,Clear,250,2013-02-28 01:55:00
9:15 PM,50.0,33.8,54,29.82,10.0,West,8.1,-,N/A,,Clear,260,2013-02-28 02:15:00
9:35 PM,50.0,32.0,50,29.83,10.0,WSW,5.8,-,N/A,,Clear,250,2013-02-28 02:35:00
9:55 PM,46.4,33.8,62,29.83,10.0,WSW,6.9,-,N/A,,Clear,250,2013-02-28 02:55:00
10:15 PM,46.4,32.0,57,29.83,10.0,WSW,6.9,-,N/A,,Clear,250,2013-02-28 03:15:00
10:35 PM,46.4,32.0,57,29.83,10.0,WSW,8.1,-,N/A,,Clear,250,2013-02-28 03:35:00
10:55 PM,46.4,32.0,57,29.83,10.0,WSW,6.9,-,N/A,,Clear,250,2013-02-28 03:55:00
11:35 PM,46.4,32.0,57,29.83,10.0,WSW,6.9,-,N/A,,Clear,240,2013-02-28 04:35:00
11:55 PM,46.4,32.0,57,29.82,10.0,WSW,8.1,-,N/A,,Clear,250,2013-02-28 04:55:00